createdAt,value
2022-11-26T00:02:31.252Z,0.33
2022-11-26T00:05:04.374Z,0.43
2022-11-26T00:07:37.452Z,0.35
2022-11-26T00:10:18.743Z,-0.01
2022-11-26T00:12:51.384Z,0.10
2022-11-26T00:15:26.046Z,0.20
2022-11-26T00:17:58.454Z,0.02
2022-11-26T00:20:31.382Z,0.11
2022-11-26T00:23:04.628Z,0.19
2022-11-26T00:25:40.343Z,0.22
2022-11-26T00:28:26.215Z,0.21
2022-11-26T00:31:01.304Z,0.26
2022-11-26T00:33:33.942Z,0.27
2022-11-26T00:36:15.237Z,0.24
2022-11-26T00:38:53.567Z,0.26
2022-11-26T00:41:31.100Z,0.22
2022-11-26T00:44:04.075Z,0.15
2022-11-26T00:46:36.411Z,0.16
2022-11-26T00:49:08.781Z,0.12
2022-11-26T00:51:41.322Z,0.17
2022-11-26T00:54:18.104Z,0.15
2022-11-26T00:56:50.528Z,0.14
2022-11-26T00:59:23.262Z,0.05
2022-11-26T01:01:55.687Z,-0.04
2022-11-26T01:04:28.204Z,-0.01
2022-11-26T01:07:00.694Z,0.02
2022-11-26T01:09:33.777Z,0.01
2022-11-26T01:12:11.524Z,-0.02
2022-11-26T01:14:44.286Z,-0.07
2022-11-26T01:17:16.640Z,-0.10
2022-11-26T01:19:48.997Z,-0.08
2022-11-26T01:22:23.175Z,-0.12
2022-11-26T01:24:56.221Z,-0.15
2022-11-26T01:27:28.611Z,-0.15
2022-11-26T01:30:00.966Z,-0.16
2022-11-26T01:32:33.318Z,-0.13
2022-11-26T01:35:06.506Z,-0.17
2022-11-26T01:37:39.188Z,-0.15
2022-11-26T01:40:38.634Z,-0.14
2022-11-26T01:43:16.905Z,-0.29
2022-11-26T01:45:49.335Z,-0.31
2022-11-26T01:48:28.206Z,-0.28
2022-11-26T01:51:03.589Z,-0.30
2022-11-26T01:53:52.217Z,-0.34
2022-11-26T01:56:32.551Z,-0.36
2022-11-26T01:59:09.610Z,-0.39
2022-11-26T02:01:42.082Z,-0.36
2022-11-26T02:04:17.369Z,-0.35
2022-11-26T02:06:51.273Z,-0.41
2022-11-26T02:09:26.101Z,-0.38
2022-11-26T02:11:59.214Z,-0.35
2022-11-26T02:14:35.465Z,-0.41
2022-11-26T02:17:16.110Z,-0.41
2022-11-26T02:20:24.401Z,-0.39
2022-11-26T02:23:35.124Z,-0.39
2022-11-26T02:26:32.887Z,-0.46
2022-11-26T02:29:14.609Z,-0.45
2022-11-26T02:31:52.668Z,-0.50
2022-11-26T02:34:37.192Z,-0.45
2022-11-26T02:37:15.890Z,-0.42
2022-11-26T02:39:48.329Z,-0.43
2022-11-26T02:42:28.025Z,-0.57
2022-11-26T02:45:04.166Z,-0.51
2022-11-26T02:47:40.712Z,-0.57
2022-11-26T02:50:18.262Z,-0.63
2022-11-26T02:52:52.831Z,-0.59
2022-11-26T02:55:28.871Z,-0.60
2022-11-26T02:58:01.692Z,-0.62
2022-11-26T03:00:36.564Z,-0.70
2022-11-26T03:03:21.678Z,-0.72
2022-11-26T03:05:56.739Z,-0.73
2022-11-26T03:08:31.222Z,-0.78
2022-11-26T03:11:04.403Z,-0.66
2022-11-26T03:13:36.867Z,-0.73
2022-11-26T03:16:09.284Z,-0.74
2022-11-26T03:18:42.413Z,-0.72
2022-11-26T03:21:14.777Z,-0.74
2022-11-26T03:23:47.199Z,-0.84
2022-11-26T03:26:19.565Z,-0.95
2022-11-26T03:28:51.997Z,-0.91
2022-11-26T03:31:24.373Z,-0.90
2022-11-26T03:33:57.429Z,-0.93
2022-11-26T03:36:29.816Z,-0.90
2022-11-26T03:39:02.185Z,-0.91
2022-11-26T03:41:34.548Z,-0.95
2022-11-26T03:44:06.906Z,-0.91
2022-11-26T03:46:39.329Z,-0.93
2022-11-26T03:49:12.381Z,-0.96
2022-11-26T03:51:44.762Z,-1.01
2022-11-26T03:54:17.148Z,-1.06
2022-11-26T03:56:49.532Z,-1.05
2022-11-26T03:59:21.942Z,-1.03
2022-11-26T04:01:54.355Z,-1.04
2022-11-26T04:04:27.607Z,-1.05
2022-11-26T04:07:00.849Z,-1.04
2022-11-26T04:09:33.316Z,-1.05
2022-11-26T04:12:06.071Z,-1.07
2022-11-26T04:14:38.726Z,-1.05
2022-11-26T04:17:11.727Z,-1.08
2022-11-26T04:19:44.713Z,-1.24
2022-11-26T04:22:17.112Z,-1.24
2022-11-26T04:24:49.470Z,-1.22
2022-11-26T04:27:21.848Z,-1.21
2022-11-26T04:29:54.408Z,-1.22
2022-11-26T04:32:26.780Z,-1.21
2022-11-26T04:34:59.843Z,-1.21
2022-11-26T04:37:32.214Z,-1.26
2022-11-26T04:40:05.824Z,-1.25
2022-11-26T04:42:38.205Z,-1.31
2022-11-26T04:45:11.326Z,-1.26
2022-11-26T04:47:43.705Z,-1.27
2022-11-26T04:50:16.859Z,-1.28
2022-11-26T04:52:49.212Z,-1.30
2022-11-26T04:55:21.582Z,-1.30
2022-11-26T04:57:54.330Z,-1.31
2022-11-26T05:00:26.884Z,-1.32
2022-11-26T05:02:59.309Z,-1.31
2022-11-26T05:05:32.386Z,-1.43
2022-11-26T05:08:05.161Z,-1.40
2022-11-26T05:10:37.635Z,-1.45
2022-11-26T05:13:10.273Z,-1.44
2022-11-26T05:15:42.621Z,-1.48
2022-11-26T05:18:15.028Z,-1.53
2022-11-26T05:20:48.080Z,-1.55
2022-11-26T05:23:20.467Z,-1.50
2022-11-26T05:25:52.942Z,-1.52
2022-11-26T05:28:25.345Z,-1.54
2022-11-26T05:30:58.792Z,-1.60
2022-11-26T05:33:31.593Z,-1.49
2022-11-26T05:36:05.198Z,-1.47
2022-11-26T05:38:37.641Z,-1.50
2022-11-26T05:41:10.025Z,-1.51
2022-11-26T05:43:42.420Z,-1.47
2022-11-26T05:46:16.286Z,-1.62
2022-11-26T05:48:48.816Z,-1.67
2022-11-26T05:51:21.904Z,-1.72
2022-11-26T05:53:54.192Z,-1.65
2022-11-26T05:56:26.588Z,-1.60
2022-11-26T05:58:58.889Z,-1.57
2022-11-26T06:01:31.326Z,-1.66
2022-11-26T06:04:03.990Z,-1.68
2022-11-26T06:06:37.129Z,-1.66
2022-11-26T06:09:09.472Z,-1.64
2022-11-26T06:11:41.937Z,-1.63
2022-11-26T06:14:14.378Z,-1.69
2022-11-26T06:16:46.951Z,-1.74
2022-11-26T06:19:19.495Z,-1.73
2022-11-26T06:21:52.616Z,-1.70
2022-11-26T06:24:25.010Z,-1.68
2022-11-26T06:26:57.451Z,-1.69
2022-11-26T06:29:29.799Z,-1.67
2022-11-26T06:32:02.338Z,-1.67
2022-11-26T06:34:34.710Z,-1.68
2022-11-26T06:37:07.760Z,-1.67
2022-11-26T06:39:40.102Z,-1.69
2022-11-26T06:42:12.516Z,-1.69
2022-11-26T06:44:45.795Z,-1.67
2022-11-26T06:47:18.171Z,-1.59
2022-11-26T06:49:50.675Z,-1.69
2022-11-26T06:52:23.720Z,-1.59
2022-11-26T06:54:56.084Z,-1.54
2022-11-26T06:57:28.490Z,-1.44
2022-11-26T07:00:01.164Z,-1.38
2022-11-26T07:02:33.668Z,-1.26
2022-11-26T07:05:06.449Z,-1.20
2022-11-26T07:07:40.093Z,-1.17
2022-11-26T07:10:12.523Z,-1.12
2022-11-26T07:12:44.975Z,-1.00
2022-11-26T07:15:17.451Z,-0.87
2022-11-26T07:17:49.873Z,-0.76
2022-11-26T07:20:22.229Z,-0.65
2022-11-26T07:22:55.263Z,-0.54
2022-11-26T07:25:27.608Z,-0.43
2022-11-26T07:28:00.051Z,-0.38
2022-11-26T07:30:32.379Z,-0.28
2022-11-26T07:33:04.844Z,-0.25
2022-11-26T07:35:37.771Z,-0.13
2022-11-26T07:38:10.748Z,-0.05
2022-11-26T07:40:43.158Z,0.08
2022-11-26T07:43:15.553Z,0.19
2022-11-26T07:45:47.969Z,0.31
2022-11-26T07:48:20.371Z,0.42
2022-11-26T07:50:52.777Z,0.50
2022-11-26T07:53:27.910Z,0.63
2022-11-26T07:56:03.080Z,0.84
2022-11-26T07:58:35.421Z,1.00
2022-11-26T08:01:09.124Z,1.09
2022-11-26T08:03:43.497Z,1.22
2022-11-26T08:06:17.654Z,1.38
2022-11-26T08:08:51.157Z,1.41
2022-11-26T08:11:27.671Z,1.54
2022-11-26T08:14:02.308Z,1.71
2022-11-26T08:16:34.863Z,1.91
2022-11-26T08:19:11.084Z,1.90
2022-11-26T08:21:43.468Z,2.01
2022-11-26T08:24:17.961Z,2.23
2022-11-26T08:26:50.383Z,2.42
2022-11-26T08:29:22.702Z,2.36
2022-11-26T08:31:54.995Z,2.39
2022-11-26T08:34:27.350Z,2.54
2022-11-26T08:36:59.727Z,2.64
2022-11-26T08:39:32.913Z,2.76
2022-11-26T08:42:05.345Z,2.91
2022-11-26T08:44:38.043Z,2.87
2022-11-26T08:47:10.643Z,2.84
2022-11-26T08:49:42.981Z,2.87
2022-11-26T08:52:15.505Z,2.79
2022-11-26T08:54:48.798Z,2.80
2022-11-26T08:57:21.425Z,2.88
2022-11-26T08:59:54.454Z,3.07
2022-11-26T09:02:26.946Z,3.14
2022-11-26T09:04:59.251Z,3.29
2022-11-26T09:07:31.672Z,3.32
2022-11-26T09:10:06.438Z,3.41
2022-11-26T09:12:38.855Z,3.44
2022-11-26T09:15:11.292Z,3.72
2022-11-26T09:17:43.659Z,3.77
2022-11-26T09:20:16.152Z,3.83
2022-11-26T09:22:48.494Z,4.06
2022-11-26T09:25:21.510Z,4.13
2022-11-26T09:27:53.801Z,4.26
2022-11-26T09:30:26.136Z,4.22
2022-11-26T09:32:58.512Z,4.41
2022-11-26T09:35:31.139Z,4.57
2022-11-26T09:38:03.497Z,4.77
2022-11-26T09:40:46.154Z,4.88
2022-11-26T09:43:27.939Z,5.31
2022-11-26T09:46:01.010Z,5.64
2022-11-26T09:48:33.963Z,5.80
2022-11-26T09:51:12.505Z,5.95
2022-11-26T09:53:46.998Z,6.07
2022-11-26T09:56:24.322Z,6.33
2022-11-26T09:59:00.964Z,6.64
2022-11-26T10:01:34.319Z,6.70
2022-11-26T10:04:07.245Z,6.74
2022-11-26T10:06:47.064Z,6.84
2022-11-26T10:09:36.888Z,6.89
2022-11-26T10:12:25.813Z,6.84
2022-11-26T10:15:03.117Z,7.08
2022-11-26T10:17:42.171Z,7.36
2022-11-26T10:20:49.394Z,7.35
2022-11-26T10:23:28.826Z,7.17
2022-11-26T10:26:11.339Z,7.37
2022-11-26T10:28:47.029Z,7.41
2022-11-26T10:31:21.769Z,7.58
2022-11-26T10:33:56.949Z,7.91
2022-11-26T10:36:35.167Z,8.01
2022-11-26T10:39:12.371Z,8.09
2022-11-26T10:41:45.071Z,8.31
2022-11-26T10:44:33.156Z,7.84
2022-11-26T10:47:30.225Z,7.78
2022-11-26T10:50:45.995Z,7.60
2022-11-26T10:53:19.956Z,7.48
2022-11-26T10:55:53.494Z,7.49
2022-11-26T10:58:29.698Z,7.62
2022-11-26T11:01:03.846Z,7.57
2022-11-26T11:06:40.390Z,7.44
2022-11-26T11:09:31.572Z,7.45
2022-11-26T11:12:22.146Z,7.65
2022-11-26T11:14:54.595Z,7.77
2022-11-26T11:17:32.780Z,7.76
2022-11-26T11:20:29.211Z,7.83
2022-11-26T11:23:06.089Z,7.56
2022-11-26T11:25:41.234Z,7.52
2022-11-26T11:28:18.319Z,7.72
2022-11-26T11:31:00.167Z,7.70
2022-11-26T11:33:33.316Z,7.88
2022-11-26T11:36:16.650Z,7.81
2022-11-26T11:38:50.990Z,7.79
2022-11-26T11:41:35.339Z,7.94
2022-11-26T11:44:16.315Z,8.18
2022-11-26T11:47:01.258Z,8.02
2022-11-26T11:49:50.348Z,8.12
2022-11-26T11:52:34.456Z,8.16
2022-11-26T11:55:19.329Z,8.08
2022-11-26T11:58:15.743Z,8.33
2022-11-26T12:00:56.339Z,8.29
2022-11-26T12:03:49.711Z,8.53
2022-11-26T12:06:35.967Z,8.60
2022-11-26T12:09:18.966Z,8.47
2022-11-26T12:11:57.650Z,8.56
2022-11-26T12:14:35.990Z,8.68
2022-11-26T12:17:15.871Z,8.82
2022-11-26T12:19:54.392Z,8.71
2022-11-26T12:22:32.818Z,8.50
2022-11-26T12:25:15.723Z,8.41
2022-11-26T12:27:54.640Z,8.38
2022-11-26T12:30:36.583Z,8.41
2022-11-26T12:33:16.486Z,8.46
2022-11-26T12:35:53.251Z,8.46
2022-11-26T12:38:29.962Z,8.50
2022-11-26T12:41:07.392Z,8.28
2022-11-26T12:43:52.879Z,8.38
2022-11-26T12:46:30.869Z,8.23
2022-11-26T12:49:12.645Z,8.12
2022-11-26T12:51:53.964Z,8.03
2022-11-26T12:54:33.399Z,7.91
2022-11-26T12:57:15.179Z,7.79
2022-11-26T12:59:54.939Z,7.99
2022-11-26T13:02:30.228Z,7.84
2022-11-26T13:05:03.110Z,7.83
2022-11-26T13:07:52.544Z,7.78
2022-11-26T13:10:34.076Z,7.66
2022-11-26T13:13:17.492Z,7.49
2022-11-26T13:16:06.449Z,7.53
2022-11-26T13:18:43.164Z,7.58
2022-11-26T13:21:30.614Z,7.45
2022-11-26T13:24:25.265Z,7.39
2022-11-26T13:27:11.985Z,7.48
2022-11-26T13:30:05.088Z,7.46
2022-11-26T13:33:14.172Z,7.38
2022-11-26T13:36:11.904Z,7.43
2022-11-26T13:38:56.515Z,7.69
2022-11-26T13:41:59.091Z,7.63
2022-11-26T13:45:12.249Z,7.30
2022-11-26T13:47:50.202Z,7.44
2022-11-26T13:50:29.214Z,7.44
2022-11-26T13:53:05.925Z,7.48
2022-11-26T13:55:43.976Z,7.57
2022-11-26T13:58:20.733Z,7.58
2022-11-26T14:00:53.894Z,7.59
2022-11-26T14:03:44.140Z,7.45
2022-11-26T14:06:16.519Z,7.38
2022-11-26T14:08:50.562Z,7.31
2022-11-26T14:11:56.053Z,7.33
2022-11-26T14:14:37.127Z,7.35
2022-11-26T14:17:21.774Z,7.34
2022-11-26T14:20:01.486Z,7.33
2022-11-26T14:22:36.558Z,7.33
2022-11-26T14:25:12.210Z,7.29
2022-11-26T14:27:52.834Z,7.23
2022-11-26T14:30:27.278Z,7.19
2022-11-26T14:33:14.089Z,7.10
2022-11-26T14:35:54.262Z,7.08
2022-11-26T14:38:30.785Z,7.04
2022-11-26T14:41:03.130Z,6.89
2022-11-26T14:43:35.457Z,6.82
2022-11-26T14:46:13.497Z,6.76
2022-11-26T14:48:48.391Z,6.70
2022-11-26T14:51:24.298Z,6.59
2022-11-26T14:53:58.457Z,6.51
2022-11-26T14:56:31.252Z,6.43
2022-11-26T14:59:05.522Z,6.38
2022-11-26T15:01:43.951Z,6.29
2022-11-26T15:04:24.507Z,6.13
2022-11-26T15:06:57.944Z,6.00
2022-11-26T15:09:30.329Z,5.90
2022-11-26T15:12:09.937Z,5.76
2022-11-26T15:14:45.966Z,5.55
2022-11-26T15:17:20.625Z,5.35
2022-11-26T15:19:56.986Z,5.27
2022-11-26T15:22:33.739Z,5.23
2022-11-26T15:25:14.404Z,5.06
2022-11-26T15:27:58.180Z,4.94
2022-11-26T15:30:32.327Z,4.87
2022-11-26T15:33:13.163Z,4.78
2022-11-26T15:35:46.522Z,4.74
2022-11-26T15:38:20.163Z,4.64
2022-11-26T15:40:54.894Z,4.60
2022-11-26T15:43:31.946Z,4.52
2022-11-26T15:46:12.292Z,4.40
2022-11-26T15:48:52.874Z,4.27
2022-11-26T15:51:35.141Z,4.24
2022-11-26T15:54:20.056Z,4.12
2022-11-26T15:56:54.993Z,4.05
2022-11-26T15:59:30.077Z,3.98
2022-11-26T16:02:13.509Z,3.90
2022-11-26T16:04:49.399Z,3.81
2022-11-26T16:07:24.352Z,3.71
2022-11-26T16:10:19.420Z,3.64
2022-11-26T16:13:17.168Z,3.47
2022-11-26T16:15:55.779Z,3.40
2022-11-26T16:18:34.664Z,3.26
2022-11-26T16:21:14.154Z,3.18
2022-11-26T16:23:53.166Z,3.00
2022-11-26T16:26:26.095Z,2.93
2022-11-26T16:28:58.381Z,2.90
2022-11-26T16:31:31.635Z,2.62
2022-11-26T16:34:09.226Z,2.69
2022-11-26T16:36:43.133Z,2.74
2022-11-26T16:39:17.189Z,2.75
2022-11-26T16:41:49.474Z,2.80
2022-11-26T16:44:21.874Z,2.82
2022-11-26T16:46:54.314Z,2.89
2022-11-26T16:49:29.338Z,2.87
2022-11-26T16:52:01.598Z,2.89
2022-11-26T16:54:34.570Z,2.92
2022-11-26T16:57:13.967Z,2.91
2022-11-26T16:59:50.598Z,2.91
2022-11-26T17:02:24.083Z,2.99
2022-11-26T17:04:56.473Z,2.98
2022-11-26T17:07:38.616Z,2.98
2022-11-26T17:10:14.540Z,3.01
2022-11-26T17:12:47.050Z,3.06
2022-11-26T17:15:19.427Z,3.06
2022-11-26T17:18:01.779Z,3.08
2022-11-26T17:20:34.090Z,3.09
2022-11-26T17:23:06.411Z,3.11
2022-11-26T17:25:39.431Z,3.07
2022-11-26T17:28:12.683Z,3.09
2022-11-26T17:30:45.300Z,3.08
2022-11-26T17:33:18.479Z,3.08
2022-11-26T17:35:50.956Z,3.00
2022-11-26T17:38:23.306Z,2.97
2022-11-26T17:40:56.308Z,2.99
2022-11-26T17:43:28.652Z,2.99
2022-11-26T17:46:01.740Z,2.98
2022-11-26T17:48:34.082Z,2.97
2022-11-26T17:51:06.549Z,2.97
2022-11-26T17:53:38.879Z,3.04
2022-11-26T17:56:17.780Z,2.92
2022-11-26T17:58:50.458Z,2.93
2022-11-26T18:01:22.849Z,2.91
2022-11-26T18:03:55.265Z,2.91
2022-11-26T18:06:38.150Z,2.89
2022-11-26T18:09:10.482Z,2.91
2022-11-26T18:11:45.867Z,2.89
2022-11-26T18:14:18.693Z,2.91
2022-11-26T18:16:51.720Z,2.92
2022-11-26T18:19:24.102Z,2.87
2022-11-26T18:21:56.822Z,2.84
2022-11-26T18:24:30.446Z,2.88
2022-11-26T18:27:03.696Z,2.85
2022-11-26T18:29:36.123Z,2.80
2022-11-26T18:32:08.438Z,2.80
2022-11-26T18:34:41.040Z,2.78
2022-11-26T18:37:13.362Z,2.82
2022-11-26T18:39:45.833Z,2.74
2022-11-26T18:45:14.225Z,2.72
2022-11-26T18:47:46.578Z,2.67
2022-11-26T18:50:19.297Z,2.70
2022-11-26T18:52:51.667Z,2.67
2022-11-26T18:55:23.972Z,2.67
2022-11-26T18:57:57.106Z,2.66
2022-11-26T19:00:29.446Z,2.64
2022-11-26T19:03:01.834Z,2.63
2022-11-26T19:05:34.164Z,2.63
2022-11-26T19:08:06.890Z,2.61
2022-11-26T19:10:39.620Z,2.62
2022-11-26T19:13:12.909Z,2.54
2022-11-26T19:15:46.031Z,2.55
2022-11-26T19:18:18.325Z,2.55
2022-11-26T19:20:52.317Z,2.53
2022-11-26T19:23:28.010Z,2.54
2022-11-26T19:26:04.559Z,2.48
2022-11-26T19:28:37.567Z,2.50
2022-11-26T19:31:11.682Z,2.47
2022-11-26T19:33:46.738Z,2.42
2022-11-26T19:36:19.765Z,2.46
2022-11-26T19:38:54.924Z,2.34
2022-11-26T19:41:28.328Z,2.40
2022-11-26T19:44:03.348Z,2.34
2022-11-26T19:46:37.439Z,2.28
2022-11-26T19:49:12.110Z,2.27
2022-11-26T19:51:44.617Z,2.30
2022-11-26T19:54:17.444Z,2.27
2022-11-26T19:56:49.773Z,2.26
2022-11-26T19:59:22.781Z,2.31
2022-11-26T20:01:55.174Z,2.26
2022-11-26T20:04:28.916Z,2.28
2022-11-26T20:07:01.354Z,2.26
2022-11-26T20:09:33.951Z,2.25
2022-11-26T20:12:06.613Z,2.22
2022-11-26T20:14:39.634Z,2.17
2022-11-26T20:17:12.039Z,2.06
2022-11-26T20:19:45.181Z,2.08
2022-11-26T20:22:18.213Z,2.09
2022-11-26T20:24:50.638Z,2.13
2022-11-26T20:27:23.447Z,2.08
2022-11-26T20:29:56.426Z,2.05
2022-11-26T20:32:28.732Z,2.03
2022-11-26T20:35:01.085Z,1.91
2022-11-26T20:37:33.411Z,1.84
2022-11-26T20:40:07.086Z,1.89
2022-11-26T20:42:40.149Z,1.91
2022-11-26T20:45:13.586Z,1.88
2022-11-26T20:47:45.887Z,1.88
2022-11-26T20:50:18.360Z,1.84
2022-11-26T20:52:50.700Z,1.85
2022-11-26T20:55:24.422Z,1.85
2022-11-26T20:57:56.780Z,1.75
2022-11-26T21:00:29.775Z,1.66
2022-11-26T21:03:02.161Z,1.59
2022-11-26T21:05:34.615Z,1.60
2022-11-26T21:08:07.233Z,1.60
2022-11-26T21:10:40.477Z,1.61
2022-11-26T21:13:14.507Z,1.52
2022-11-26T21:15:47.534Z,1.39
2022-11-26T21:18:20.396Z,1.37
2022-11-26T21:20:53.334Z,1.31
2022-11-26T21:23:26.478Z,1.22
2022-11-26T21:26:05.071Z,1.22
2022-11-26T21:28:37.768Z,1.20
2022-11-26T21:31:16.348Z,1.11
2022-11-26T21:33:54.670Z,1.16
2022-11-26T21:36:28.163Z,1.19
2022-11-26T21:39:01.301Z,1.16
2022-11-26T21:41:33.914Z,1.14
2022-11-26T21:44:06.338Z,1.24
2022-11-26T21:46:39.471Z,1.19
2022-11-26T21:49:12.121Z,1.16
2022-11-26T21:51:44.513Z,1.16
2022-11-26T21:54:16.914Z,1.20
2022-11-26T21:56:49.262Z,1.17
2022-11-26T21:59:21.556Z,1.11
2022-11-26T22:01:54.830Z,1.10
2022-11-26T22:04:27.211Z,1.14
2022-11-26T22:06:59.641Z,1.19
2022-11-26T22:09:32.555Z,1.15
2022-11-26T22:12:05.532Z,1.25
2022-11-26T22:14:37.947Z,1.25
2022-11-26T22:17:10.973Z,1.16
2022-11-26T22:19:43.310Z,1.17
2022-11-26T22:22:15.694Z,1.23
2022-11-26T22:24:48.603Z,1.28
2022-11-26T22:27:21.043Z,1.27
2022-11-26T22:29:53.388Z,1.27
2022-11-26T22:32:26.423Z,1.25
2022-11-26T22:34:58.847Z,1.33
2022-11-26T22:37:31.190Z,1.15
2022-11-26T22:40:04.240Z,1.16
2022-11-26T22:42:36.618Z,1.23
2022-11-26T22:45:10.865Z,1.27
2022-11-26T22:47:46.474Z,1.33
2022-11-26T22:50:21.954Z,1.38
2022-11-26T22:52:54.283Z,1.47
2022-11-26T22:55:26.613Z,1.50
2022-11-26T22:57:58.941Z,1.50
2022-11-26T23:00:50.095Z,1.48
2022-11-26T23:03:24.854Z,1.42
2022-11-26T23:06:02.330Z,1.53
2022-11-26T23:08:35.507Z,1.56
2022-11-26T23:11:21.222Z,1.57
2022-11-26T23:13:54.184Z,1.60
2022-11-26T23:16:26.850Z,1.58
2022-11-26T23:19:00.094Z,1.52
2022-11-26T23:21:34.645Z,1.48
2022-11-26T23:24:07.534Z,1.44
2022-11-26T23:26:40.856Z,1.49
2022-11-26T23:29:13.622Z,1.44
2022-11-26T23:31:45.988Z,1.52
2022-11-26T23:34:19.110Z,1.40
2022-11-26T23:36:51.449Z,1.38
2022-11-26T23:39:23.786Z,1.27
2022-11-26T23:41:56.138Z,1.30
2022-11-26T23:44:28.504Z,1.26
2022-11-26T23:47:00.850Z,1.25
2022-11-26T23:49:33.956Z,1.15
2022-11-26T23:52:06.465Z,1.17
2022-11-26T23:54:38.772Z,1.10
2022-11-26T23:57:15.020Z,1.11
2022-11-26T23:59:47.662Z,1.10
